Portada
METAR-TAF:

METAR-TAF

Aeropuertos :

Aeropuerto de Badajoz

Badajoz, España

latitud: 38-53N, longitud: 006-49W, altitud: 185 m

Observación

El informe se hizo hace 9 horas y 10 minutos, a las 20:00 UTC
Viento 7 kt del este-noreste
Temperatura 18°C
Humedad 37%
Presión 1019 hPa
Visibilidad 10 km o más
sin nubes por debajo de 1500 m y sin presencia de cumulonimbus.

METAR: LEBZ 232000Z 07007KT CAVOK 18/03 Q1019

Hora: 06:10 (05:10 UTC)

Pronóstico

El informe se hizo hace 6 horas y 10 minutos, a las 23:00 UTC
Pronóstico válido del 24 a las 00 UTC al 24 a las 24 UTC
Viento 8 kt del este
Visibilidad 10 km o más
sin nubes por debajo de 1500 m y sin presencia de cumulonimbus.
Probabilidad 40% :
Temporalmente
del 24 a las 11 UTC al 24 a las 18 UTC
Viento 15 kt del este con ráfagas de 25 kt
Nubes dispersas a una altura de 4000 ft, Cumulonimbus.

TAF: LEBZ 232300Z 2400/2424 08008KT CAVOK TX22/2415Z TN08/2406Z PROB40 TEMPO 2411/2418 08015G25KT SCT040CB

Observaciones y pronósticos meteorológicos de más de 4000 aeropuertos (mensajes METAR y TAF).

Los puntos amarillos y rojos representan las estaciones disponibles.

Ponga el ratón en el punto deseado para ver el nombre de la estación.

Haga clic para ver las observaciones y los pronósticos meteorológicos.

Para cambiar el mapa : haga clic en los botones verdes con una cruz de color negro para hacer un zoom, en el botón verde con un guión para alejar o en las flechas verdes para mapas adyacentes.


METAR-TAF: